MSR14 HECA-OEJN
Flight info
| Callsign | MSR14 |
|---|---|
| Flight time | 1h 51m |
| Altitude | 37000 |
| Route | CVO A727 NABED T55 DEDLI M999 MUVOL |
| Aircraft | B738/M-SDE2E3FGHIRWXY/LB1 |
Departure
| Time | 2026-05-06 06:41 |
|---|---|
| Airport | Cairo International Airport (HECA) |
Arrival
| Time | 2026-05-06 08:33 |
|---|---|
| Airport | King Abdulaziz International Airport (OEJN) |
| Time | Latitude | Longitude | Altitude | Speed | Heading |
|---|---|---|---|---|---|
| 2026-05-06 06:16 | 30.10808 | 31.39673 | 335 ft | 0 kts | 255° |
| 2026-05-06 06:31 | 30.10816 | 31.39705 | 334 ft | 5 kts | 252° |
| 2026-05-06 06:31 | 30.10827 | 31.39739 | 337 ft | 4 kts | 238° |
| 2026-05-06 06:31 | 30.10838 | 31.39753 | 335 ft | 2 kts | 208° |
| 2026-05-06 06:31 | 30.10850 | 31.39758 | 335 ft | 2 kts | 178° |
| 2026-05-06 06:32 | 30.10862 | 31.39757 | 334 ft | 2 kts | 167° |
| 2026-05-06 06:32 | 30.10872 | 31.39754 | 335 ft | 0 kts | 165° |
| 2026-05-06 06:34 | 30.10825 | 31.39768 | 349 ft | 10 kts | 165° |
| 2026-05-06 06:34 | 30.10752 | 31.39791 | 353 ft | 11 kts | 165° |
| 2026-05-06 06:34 | 30.10699 | 31.39808 | 349 ft | 6 kts | 164° |
| 2026-05-06 06:35 | 30.10653 | 31.39821 | 356 ft | 7 kts | 167° |
| 2026-05-06 06:35 | 30.10598 | 31.39836 | 367 ft | 9 kts | 165° |
| 2026-05-06 06:35 | 30.10537 | 31.39855 | 360 ft | 9 kts | 165° |
| 2026-05-06 06:35 | 30.10510 | 31.39863 | 360 ft | 4 kts | 165° |
| 2026-05-06 06:36 | 30.10479 | 31.39873 | 362 ft | 5 kts | 166° |
| 2026-05-06 06:36 | 30.10438 | 31.39878 | 366 ft | 8 kts | 189° |
| 2026-05-06 06:36 | 30.10381 | 31.39818 | 365 ft | 15 kts | 228° |
| 2026-05-06 06:36 | 30.10318 | 31.39738 | 368 ft | 14 kts | 227° |
| 2026-05-06 06:37 | 30.10252 | 31.39654 | 367 ft | 12 kts | 228° |
| 2026-05-06 06:37 | 30.10201 | 31.39591 | 366 ft | 10 kts | 219° |
| 2026-05-06 06:37 | 30.10138 | 31.39587 | 370 ft | 9 kts | 145° |
| 2026-05-06 06:37 | 30.10093 | 31.39628 | 373 ft | 6 kts | 141° |
| 2026-05-06 06:38 | 30.10062 | 31.39657 | 376 ft | 6 kts | 140° |
| 2026-05-06 06:38 | 30.10047 | 31.39672 | 378 ft | 0 kts | 140° |
| 2026-05-06 06:39 | 30.10030 | 31.39692 | 380 ft | 6 kts | 131° |
| 2026-05-06 06:39 | 30.10008 | 31.39754 | 384 ft | 11 kts | 98° |
| 2026-05-06 06:39 | 30.10015 | 31.39860 | 386 ft | 9 kts | 78° |
| 2026-05-06 06:39 | 30.10029 | 31.39913 | 387 ft | 0 kts | 53° |
| 2026-05-06 06:40 | 30.10032 | 31.39917 | 387 ft | 2 kts | 49° |
| 2026-05-06 06:40 | 30.10037 | 31.39924 | 387 ft | 1 kts | 49° |
| 2026-05-06 06:40 | 30.10083 | 31.39986 | 386 ft | 40 kts | 49° |
| 2026-05-06 06:40 | 30.10433 | 31.40449 | 388 ft | 111 kts | 49° |
| 2026-05-06 06:41 | 30.11080 | 31.41289 | 390 ft | 167 kts | 46° |
| 2026-05-06 06:41 | 30.11918 | 31.42367 | 754 ft | 191 kts | 48° |
| 2026-05-06 06:41 | 30.12778 | 31.43514 | 1694 ft | 182 kts | 56° |
| 2026-05-06 06:41 | 30.13104 | 31.44884 | 2659 ft | 180 kts | 83° |
| 2026-05-06 06:42 | 30.13055 | 31.46436 | 3031 ft | 209 kts | 99° |
| 2026-05-06 06:42 | 30.12493 | 31.48081 | 3245 ft | 235 kts | 121° |
| 2026-05-06 06:42 | 30.11296 | 31.49445 | 3610 ft | 255 kts | 146° |
| 2026-05-06 06:42 | 30.09570 | 31.50151 | 4046 ft | 273 kts | 172° |
| 2026-05-06 06:43 | 30.07660 | 31.50299 | 4925 ft | 275 kts | 177° |
| 2026-05-06 06:43 | 30.05744 | 31.50370 | 5756 ft | 278 kts | 179° |
| 2026-05-06 06:43 | 30.03794 | 31.50431 | 6553 ft | 282 kts | 180° |
| 2026-05-06 06:43 | 30.01816 | 31.50495 | 7330 ft | 286 kts | 180° |
| 2026-05-06 06:44 | 29.99813 | 31.50565 | 8076 ft | 290 kts | 180° |
| 2026-05-06 06:44 | 29.97784 | 31.50641 | 8831 ft | 294 kts | 180° |
| 2026-05-06 06:44 | 29.95720 | 31.50722 | 9579 ft | 299 kts | 180° |
| 2026-05-06 06:44 | 29.93629 | 31.50807 | 10294 ft | 303 kts | 180° |
| 2026-05-06 06:45 | 29.91490 | 31.50893 | 10596 ft | 323 kts | 180° |
| 2026-05-06 06:45 | 29.89160 | 31.50987 | 10771 ft | 346 kts | 180° |
| 2026-05-06 06:45 | 29.86705 | 31.51089 | 11162 ft | 358 kts | 180° |
| 2026-05-06 06:45 | 29.84193 | 31.51197 | 11811 ft | 363 kts | 180° |
| 2026-05-06 06:46 | 29.81665 | 31.51306 | 12536 ft | 365 kts | 180° |
| 2026-05-06 06:46 | 29.79114 | 31.51415 | 13212 ft | 369 kts | 180° |
| 2026-05-06 06:46 | 29.76538 | 31.51524 | 13900 ft | 372 kts | 181° |
| 2026-05-06 06:46 | 29.73937 | 31.51633 | 14531 ft | 376 kts | 181° |
| 2026-05-06 06:47 | 29.71308 | 31.51747 | 15177 ft | 380 kts | 180° |
| 2026-05-06 06:47 | 29.68657 | 31.52155 | 15787 ft | 388 kts | 169° |
| 2026-05-06 06:47 | 29.66032 | 31.52974 | 16472 ft | 392 kts | 166° |
| 2026-05-06 06:47 | 29.63407 | 31.53859 | 17127 ft | 396 kts | 166° |
| 2026-05-06 06:48 | 29.60756 | 31.54765 | 17754 ft | 400 kts | 166° |
| 2026-05-06 06:48 | 29.58072 | 31.55676 | 18358 ft | 404 kts | 166° |
| 2026-05-06 06:48 | 29.55365 | 31.56586 | 18933 ft | 407 kts | 166° |
| 2026-05-06 06:48 | 29.52639 | 31.57493 | 19563 ft | 408 kts | 166° |
| 2026-05-06 06:49 | 29.49901 | 31.58397 | 20169 ft | 410 kts | 166° |
| 2026-05-06 06:49 | 29.47148 | 31.59302 | 20773 ft | 413 kts | 167° |
| 2026-05-06 06:49 | 29.44384 | 31.60208 | 21368 ft | 414 kts | 167° |
| 2026-05-06 06:49 | 29.41604 | 31.61118 | 21955 ft | 417 kts | 167° |
| 2026-05-06 06:50 | 29.38807 | 31.62032 | 22522 ft | 419 kts | 167° |
| 2026-05-06 06:50 | 29.35993 | 31.62952 | 23073 ft | 422 kts | 167° |
| 2026-05-06 06:50 | 29.33164 | 31.63876 | 23628 ft | 424 kts | 167° |
| 2026-05-06 06:50 | 29.30319 | 31.64806 | 24088 ft | 426 kts | 167° |
| 2026-05-06 06:51 | 29.27456 | 31.65740 | 24513 ft | 429 kts | 167° |
| 2026-05-06 06:51 | 29.24578 | 31.66679 | 24931 ft | 432 kts | 167° |
| 2026-05-06 06:51 | 29.21680 | 31.67624 | 25356 ft | 435 kts | 168° |
| 2026-05-06 06:51 | 29.18762 | 31.68575 | 25777 ft | 437 kts | 168° |
| 2026-05-06 06:52 | 29.15828 | 31.69531 | 26179 ft | 440 kts | 168° |
| 2026-05-06 06:52 | 29.12877 | 31.70491 | 26571 ft | 442 kts | 168° |
| 2026-05-06 06:52 | 29.09906 | 31.71458 | 26953 ft | 445 kts | 168° |
| 2026-05-06 06:52 | 29.06919 | 31.72430 | 27331 ft | 448 kts | 168° |
| 2026-05-06 06:53 | 29.03916 | 31.73407 | 27698 ft | 450 kts | 168° |
| 2026-05-06 06:53 | 29.00895 | 31.74388 | 28066 ft | 453 kts | 168° |
| 2026-05-06 06:53 | 28.97857 | 31.75373 | 28413 ft | 455 kts | 168° |
| 2026-05-06 06:53 | 28.94802 | 31.76353 | 28765 ft | 457 kts | 169° |
| 2026-05-06 06:54 | 28.91729 | 31.77329 | 29097 ft | 460 kts | 169° |
| 2026-05-06 06:54 | 28.88634 | 31.78309 | 29431 ft | 462 kts | 169° |
| 2026-05-06 06:54 | 28.85529 | 31.79291 | 29764 ft | 464 kts | 169° |
| 2026-05-06 06:54 | 28.82409 | 31.80279 | 30099 ft | 466 kts | 169° |
| 2026-05-06 06:55 | 28.79272 | 31.81273 | 30362 ft | 469 kts | 169° |
| 2026-05-06 06:55 | 28.76125 | 31.82270 | 30646 ft | 470 kts | 169° |
| 2026-05-06 06:55 | 28.72976 | 31.83269 | 30936 ft | 471 kts | 169° |
| 2026-05-06 06:55 | 28.69822 | 31.84268 | 31261 ft | 470 kts | 169° |
| 2026-05-06 06:56 | 28.66677 | 31.85266 | 31674 ft | 468 kts | 169° |
| 2026-05-06 06:56 | 28.63546 | 31.86258 | 32094 ft | 466 kts | 169° |
| 2026-05-06 06:56 | 28.60435 | 31.87243 | 32475 ft | 464 kts | 169° |
| 2026-05-06 06:56 | 28.57323 | 31.88226 | 32831 ft | 463 kts | 169° |
| 2026-05-06 06:57 | 28.54218 | 31.89206 | 33181 ft | 462 kts | 169° |
| 2026-05-06 06:57 | 28.51124 | 31.90183 | 33553 ft | 461 kts | 169° |
| 2026-05-06 06:57 | 28.48038 | 31.91156 | 33938 ft | 459 kts | 169° |
| 2026-05-06 06:57 | 28.44964 | 31.92125 | 34249 ft | 458 kts | 170° |
| 2026-05-06 06:58 | 28.41896 | 31.93090 | 34498 ft | 458 kts | 170° |
| 2026-05-06 06:58 | 28.38825 | 31.94057 | 34750 ft | 458 kts | 170° |
| 2026-05-06 06:58 | 28.35793 | 31.95010 | 35002 ft | 458 kts | 170° |
| 2026-05-06 06:58 | 28.32728 | 31.95974 | 35261 ft | 457 kts | 170° |
| 2026-05-06 06:59 | 28.29619 | 31.96951 | 35503 ft | 457 kts | 170° |
| 2026-05-06 06:59 | 28.26594 | 31.97900 | 35740 ft | 457 kts | 170° |
| 2026-05-06 06:59 | 28.23524 | 31.98864 | 36003 ft | 457 kts | 170° |
| 2026-05-06 06:59 | 28.20468 | 31.99823 | 36251 ft | 456 kts | 171° |
| 2026-05-06 07:00 | 28.17404 | 32.00784 | 36481 ft | 456 kts | 171° |
| 2026-05-06 07:00 | 28.14349 | 32.01741 | 36722 ft | 456 kts | 171° |
| 2026-05-06 07:00 | 28.11297 | 32.02697 | 36960 ft | 455 kts | 171° |
| 2026-05-06 07:00 | 28.08241 | 32.03654 | 37187 ft | 455 kts | 171° |
| 2026-05-06 07:01 | 28.05195 | 32.04607 | 37414 ft | 455 kts | 171° |
| 2026-05-06 07:01 | 28.02143 | 32.05563 | 37634 ft | 454 kts | 171° |
| 2026-05-06 07:01 | 27.99102 | 32.06528 | 37848 ft | 454 kts | 171° |
| 2026-05-06 07:01 | 27.96062 | 32.07501 | 38088 ft | 454 kts | 171° |
| 2026-05-06 07:02 | 27.93025 | 32.08475 | 38287 ft | 453 kts | 171° |
| 2026-05-06 07:02 | 27.89992 | 32.09447 | 38495 ft | 453 kts | 171° |
| 2026-05-06 07:02 | 27.86959 | 32.10418 | 38692 ft | 453 kts | 171° |
| 2026-05-06 07:02 | 27.83932 | 32.11385 | 38889 ft | 452 kts | 171° |
| 2026-05-06 07:03 | 27.80904 | 32.12351 | 39031 ft | 452 kts | 171° |
| 2026-05-06 07:03 | 27.74833 | 32.14283 | 39115 ft | 455 kts | 171° |
| 2026-05-06 07:04 | 27.68748 | 32.16220 | 39103 ft | 453 kts | 171° |
| 2026-05-06 07:04 | 27.62699 | 32.18145 | 39102 ft | 451 kts | 171° |
| 2026-05-06 07:05 | 27.56678 | 32.20057 | 39096 ft | 449 kts | 171° |
| 2026-05-06 07:05 | 27.50680 | 32.21958 | 39091 ft | 447 kts | 171° |
| 2026-05-06 07:06 | 27.44694 | 32.23854 | 39099 ft | 446 kts | 171° |
| 2026-05-06 07:06 | 27.38720 | 32.25744 | 39089 ft | 446 kts | 171° |
| 2026-05-06 07:07 | 27.33756 | 32.27347 | 39091 ft | 450 kts | 167° |
| 2026-05-06 07:07 | 27.30889 | 32.28843 | 39088 ft | 461 kts | 155° |
| 2026-05-06 07:07 | 27.28260 | 32.30961 | 39088 ft | 471 kts | 144° |
| 2026-05-06 07:08 | 27.23849 | 32.36541 | 39092 ft | 481 kts | 135° |
| 2026-05-06 07:08 | 27.19662 | 32.42424 | 39088 ft | 483 kts | 134° |
| 2026-05-06 07:09 | 27.15438 | 32.48291 | 39083 ft | 484 kts | 135° |
| 2026-05-06 07:09 | 27.11161 | 32.54128 | 39083 ft | 485 kts | 135° |
| 2026-05-06 07:10 | 27.06855 | 32.59960 | 39076 ft | 486 kts | 135° |
| 2026-05-06 07:10 | 27.02534 | 32.65802 | 39067 ft | 486 kts | 135° |
| 2026-05-06 07:11 | 26.98218 | 32.71635 | 39064 ft | 486 kts | 135° |
| 2026-05-06 07:11 | 26.93903 | 32.77462 | 39059 ft | 485 kts | 135° |
| 2026-05-06 07:12 | 26.89599 | 32.83266 | 39055 ft | 484 kts | 136° |
| 2026-05-06 07:12 | 26.85302 | 32.89054 | 39048 ft | 483 kts | 136° |
| 2026-05-06 07:13 | 26.81008 | 32.94827 | 39048 ft | 482 kts | 136° |
| 2026-05-06 07:13 | 26.76722 | 33.00584 | 39046 ft | 481 kts | 136° |
| 2026-05-06 07:14 | 26.72445 | 33.06321 | 39048 ft | 480 kts | 136° |
| 2026-05-06 07:14 | 26.68169 | 33.12050 | 39041 ft | 479 kts | 136° |
| 2026-05-06 07:15 | 26.63898 | 33.17764 | 39041 ft | 479 kts | 136° |
| 2026-05-06 07:15 | 26.59626 | 33.23473 | 39035 ft | 479 kts | 136° |
| 2026-05-06 07:16 | 26.55353 | 33.29175 | 39038 ft | 478 kts | 136° |
| 2026-05-06 07:16 | 26.51077 | 33.34875 | 39035 ft | 479 kts | 136° |
| 2026-05-06 07:17 | 26.46830 | 33.40531 | 39027 ft | 478 kts | 136° |
| 2026-05-06 07:17 | 26.42548 | 33.46221 | 39027 ft | 479 kts | 136° |
| 2026-05-06 07:18 | 26.38259 | 33.51908 | 39020 ft | 479 kts | 136° |
| 2026-05-06 07:18 | 26.33970 | 33.57590 | 39028 ft | 479 kts | 136° |
| 2026-05-06 07:19 | 26.29676 | 33.63275 | 39018 ft | 479 kts | 137° |
| 2026-05-06 07:19 | 26.25387 | 33.68946 | 39018 ft | 479 kts | 137° |
| 2026-05-06 07:20 | 26.21091 | 33.74618 | 39023 ft | 479 kts | 137° |
| 2026-05-06 07:20 | 26.16789 | 33.80292 | 39009 ft | 479 kts | 137° |
| 2026-05-06 07:21 | 26.12492 | 33.85952 | 39016 ft | 478 kts | 137° |
| 2026-05-06 07:21 | 26.08199 | 33.91601 | 39020 ft | 477 kts | 137° |
| 2026-05-06 07:22 | 26.03911 | 33.97235 | 39017 ft | 477 kts | 137° |
| 2026-05-06 07:22 | 25.99624 | 34.02861 | 39010 ft | 476 kts | 137° |
| 2026-05-06 07:23 | 25.95346 | 34.08470 | 39011 ft | 476 kts | 137° |
| 2026-05-06 07:23 | 25.91065 | 34.14074 | 39011 ft | 475 kts | 138° |
| 2026-05-06 07:24 | 25.86789 | 34.19657 | 39015 ft | 475 kts | 138° |
| 2026-05-06 07:24 | 25.82511 | 34.25235 | 39008 ft | 474 kts | 138° |
| 2026-05-06 07:25 | 25.78231 | 34.30811 | 39010 ft | 474 kts | 138° |
| 2026-05-06 07:25 | 25.73953 | 34.36379 | 39015 ft | 474 kts | 138° |
| 2026-05-06 07:26 | 25.69671 | 34.41946 | 39010 ft | 474 kts | 138° |
| 2026-05-06 07:26 | 25.65386 | 34.47510 | 39021 ft | 474 kts | 139° |
| 2026-05-06 07:27 | 25.61097 | 34.53075 | 39022 ft | 475 kts | 139° |
| 2026-05-06 07:27 | 25.56739 | 34.58544 | 39019 ft | 471 kts | 142° |
| 2026-05-06 07:28 | 25.52101 | 34.63641 | 39020 ft | 469 kts | 144° |
| 2026-05-06 07:28 | 25.45083 | 34.71181 | 39017 ft | 469 kts | 144° |
| 2026-05-06 07:29 | 25.40426 | 34.76249 | 39014 ft | 470 kts | 144° |
| 2026-05-06 07:29 | 25.35771 | 34.81333 | 39015 ft | 470 kts | 144° |
| 2026-05-06 07:30 | 25.31111 | 34.86419 | 39016 ft | 471 kts | 144° |
| 2026-05-06 07:30 | 25.26453 | 34.91494 | 39016 ft | 471 kts | 144° |
| 2026-05-06 07:31 | 25.21782 | 34.96576 | 39020 ft | 471 kts | 144° |
| 2026-05-06 07:31 | 25.17109 | 35.01654 | 39021 ft | 471 kts | 145° |
| 2026-05-06 07:32 | 25.12437 | 35.06727 | 39018 ft | 471 kts | 145° |
| 2026-05-06 07:32 | 25.07762 | 35.11797 | 39015 ft | 471 kts | 145° |
| 2026-05-06 07:33 | 25.03080 | 35.16870 | 39010 ft | 471 kts | 145° |
| 2026-05-06 07:33 | 24.98411 | 35.21932 | 39012 ft | 471 kts | 145° |
| 2026-05-06 07:34 | 24.93758 | 35.26973 | 39010 ft | 471 kts | 145° |
| 2026-05-06 07:34 | 24.89082 | 35.32035 | 39008 ft | 471 kts | 146° |
| 2026-05-06 07:35 | 24.84401 | 35.37094 | 39004 ft | 472 kts | 146° |
| 2026-05-06 07:35 | 24.79718 | 35.42151 | 38999 ft | 472 kts | 146° |
| 2026-05-06 07:36 | 24.75032 | 35.47206 | 39008 ft | 472 kts | 146° |
| 2026-05-06 07:36 | 24.70346 | 35.52255 | 39005 ft | 472 kts | 146° |
| 2026-05-06 07:37 | 24.65653 | 35.57305 | 38995 ft | 472 kts | 146° |
| 2026-05-06 07:37 | 24.60961 | 35.62349 | 38999 ft | 472 kts | 146° |
| 2026-05-06 07:38 | 24.56265 | 35.67392 | 39001 ft | 472 kts | 146° |
| 2026-05-06 07:38 | 24.51567 | 35.72431 | 38995 ft | 472 kts | 146° |
| 2026-05-06 07:39 | 24.46870 | 35.77463 | 38997 ft | 472 kts | 146° |
| 2026-05-06 07:39 | 24.42165 | 35.82499 | 38995 ft | 472 kts | 146° |
| 2026-05-06 07:40 | 24.37465 | 35.87523 | 38993 ft | 472 kts | 146° |
| 2026-05-06 07:40 | 24.32764 | 35.92544 | 38987 ft | 472 kts | 146° |
| 2026-05-06 07:41 | 24.28059 | 35.97564 | 38988 ft | 472 kts | 146° |
| 2026-05-06 07:41 | 24.23357 | 36.02574 | 38984 ft | 471 kts | 146° |
| 2026-05-06 07:42 | 24.18655 | 36.07579 | 38985 ft | 471 kts | 147° |
| 2026-05-06 07:42 | 24.13956 | 36.12575 | 38983 ft | 471 kts | 147° |
| 2026-05-06 07:43 | 24.09252 | 36.17571 | 38982 ft | 471 kts | 147° |
| 2026-05-06 07:43 | 24.04553 | 36.22557 | 38978 ft | 470 kts | 147° |
| 2026-05-06 07:44 | 23.99850 | 36.27541 | 38976 ft | 470 kts | 147° |
| 2026-05-06 07:44 | 23.95154 | 36.32513 | 38974 ft | 470 kts | 147° |
| 2026-05-06 07:45 | 23.90452 | 36.37486 | 38975 ft | 470 kts | 147° |
| 2026-05-06 07:45 | 23.85750 | 36.42453 | 38967 ft | 470 kts | 147° |
| 2026-05-06 07:46 | 23.81044 | 36.47419 | 38965 ft | 470 kts | 147° |
| 2026-05-06 07:46 | 23.76338 | 36.52380 | 38963 ft | 470 kts | 147° |
| 2026-05-06 07:47 | 23.71661 | 36.57306 | 38962 ft | 470 kts | 147° |
| 2026-05-06 07:47 | 23.66924 | 36.62289 | 38959 ft | 470 kts | 147° |
| 2026-05-06 07:48 | 23.62208 | 36.67244 | 38960 ft | 470 kts | 147° |
| 2026-05-06 07:48 | 23.57497 | 36.72190 | 38961 ft | 470 kts | 147° |
| 2026-05-06 07:49 | 23.52781 | 36.77136 | 38961 ft | 471 kts | 147° |
| 2026-05-06 07:49 | 23.48858 | 36.81245 | 38959 ft | 471 kts | 147° |
| 2026-05-06 07:50 | 23.44133 | 36.86191 | 38956 ft | 471 kts | 147° |
| 2026-05-06 07:50 | 23.38639 | 36.91934 | 38953 ft | 471 kts | 147° |
| 2026-05-06 07:51 | 23.34679 | 36.96070 | 38952 ft | 471 kts | 147° |
| 2026-05-06 07:51 | 23.29947 | 37.01008 | 38949 ft | 471 kts | 147° |
| 2026-05-06 07:52 | 23.25217 | 37.05939 | 38942 ft | 471 kts | 147° |
| 2026-05-06 07:52 | 23.20477 | 37.10874 | 38941 ft | 471 kts | 147° |
| 2026-05-06 07:53 | 23.15743 | 37.15798 | 38946 ft | 471 kts | 147° |
| 2026-05-06 07:53 | 23.11005 | 37.20721 | 38950 ft | 471 kts | 147° |
| 2026-05-06 07:54 | 23.06266 | 37.25641 | 38948 ft | 471 kts | 147° |
| 2026-05-06 07:54 | 23.01528 | 37.30554 | 38945 ft | 471 kts | 147° |
| 2026-05-06 07:55 | 22.96796 | 37.35456 | 38947 ft | 470 kts | 147° |
| 2026-05-06 07:55 | 22.92062 | 37.40356 | 38945 ft | 470 kts | 147° |
| 2026-05-06 07:56 | 22.87360 | 37.45217 | 38946 ft | 470 kts | 147° |
| 2026-05-06 07:56 | 22.82600 | 37.50134 | 38945 ft | 469 kts | 147° |
| 2026-05-06 07:57 | 22.77869 | 37.55015 | 38942 ft | 469 kts | 147° |
| 2026-05-06 07:57 | 22.73173 | 37.59857 | 38939 ft | 469 kts | 146° |
| 2026-05-06 07:58 | 22.68769 | 37.65187 | 38945 ft | 483 kts | 135° |
| 2026-05-06 07:58 | 22.64952 | 37.71100 | 38917 ft | 467 kts | 134° |
| 2026-05-06 07:59 | 22.63137 | 37.73969 | 38778 ft | 457 kts | 134° |
| 2026-05-06 07:59 | 22.61340 | 37.76776 | 38389 ft | 453 kts | 135° |
| 2026-05-06 07:59 | 22.59511 | 37.79584 | 37424 ft | 462 kts | 135° |
| 2026-05-06 07:59 | 22.57622 | 37.82449 | 36434 ft | 473 kts | 135° |
| 2026-05-06 08:00 | 22.55693 | 37.85369 | 35543 ft | 481 kts | 135° |
| 2026-05-06 08:00 | 22.53736 | 37.88334 | 34739 ft | 487 kts | 134° |
| 2026-05-06 08:00 | 22.51772 | 37.91322 | 34176 ft | 486 kts | 134° |
| 2026-05-06 08:00 | 22.49827 | 37.94292 | 33782 ft | 480 kts | 134° |
| 2026-05-06 08:01 | 22.47924 | 37.97203 | 33275 ft | 469 kts | 134° |
| 2026-05-06 08:01 | 22.46050 | 38.00059 | 32512 ft | 464 kts | 134° |
| 2026-05-06 08:01 | 22.44184 | 38.02891 | 31887 ft | 457 kts | 134° |
| 2026-05-06 08:01 | 22.42364 | 38.05653 | 31398 ft | 448 kts | 134° |
| 2026-05-06 08:02 | 22.40573 | 38.08367 | 30969 ft | 440 kts | 133° |
| 2026-05-06 08:02 | 22.38802 | 38.11045 | 30537 ft | 438 kts | 133° |
| 2026-05-06 08:02 | 22.37032 | 38.13717 | 30105 ft | 436 kts | 133° |
| 2026-05-06 08:02 | 22.35271 | 38.16376 | 29608 ft | 435 kts | 133° |
| 2026-05-06 08:03 | 22.33519 | 38.19026 | 29137 ft | 432 kts | 132° |
| 2026-05-06 08:03 | 22.31780 | 38.21656 | 28682 ft | 428 kts | 132° |
| 2026-05-06 08:03 | 22.30056 | 38.24262 | 28236 ft | 425 kts | 132° |
| 2026-05-06 08:03 | 22.28344 | 38.26844 | 27796 ft | 421 kts | 132° |
| 2026-05-06 08:04 | 22.26643 | 38.29402 | 27358 ft | 418 kts | 132° |
| 2026-05-06 08:04 | 22.24950 | 38.31944 | 26924 ft | 415 kts | 131° |
| 2026-05-06 08:04 | 22.23291 | 38.34437 | 26499 ft | 412 kts | 131° |
| 2026-05-06 08:04 | 22.21623 | 38.36942 | 26072 ft | 410 kts | 131° |
| 2026-05-06 08:05 | 22.19955 | 38.39420 | 25642 ft | 406 kts | 132° |
| 2026-05-06 08:05 | 22.18241 | 38.41833 | 25214 ft | 403 kts | 133° |
| 2026-05-06 08:05 | 22.16514 | 38.44207 | 24750 ft | 402 kts | 133° |
| 2026-05-06 08:05 | 22.14791 | 38.46569 | 24301 ft | 400 kts | 133° |
| 2026-05-06 08:06 | 22.13079 | 38.48929 | 23871 ft | 398 kts | 133° |
| 2026-05-06 08:06 | 22.11383 | 38.51281 | 23435 ft | 397 kts | 132° |
| 2026-05-06 08:06 | 22.09695 | 38.53627 | 22945 ft | 394 kts | 132° |
| 2026-05-06 08:06 | 22.08024 | 38.55950 | 22495 ft | 391 kts | 132° |
| 2026-05-06 08:07 | 22.06253 | 38.58104 | 22243 ft | 375 kts | 146° |
| 2026-05-06 08:07 | 22.04073 | 38.59462 | 22099 ft | 354 kts | 165° |
| 2026-05-06 08:07 | 22.01724 | 38.59968 | 21839 ft | 339 kts | 181° |
| 2026-05-06 08:07 | 21.99398 | 38.59793 | 21466 ft | 332 kts | 194° |
| 2026-05-06 08:08 | 21.97232 | 38.59027 | 21092 ft | 326 kts | 208° |
| 2026-05-06 08:08 | 21.95256 | 38.57858 | 20740 ft | 323 kts | 211° |
| 2026-05-06 08:08 | 21.93260 | 38.56768 | 20361 ft | 322 kts | 202° |
| 2026-05-06 08:08 | 21.91126 | 38.56052 | 20018 ft | 321 kts | 198° |
| 2026-05-06 08:09 | 21.88979 | 38.55414 | 19657 ft | 319 kts | 197° |
| 2026-05-06 08:09 | 21.86846 | 38.54760 | 19294 ft | 318 kts | 198° |
| 2026-05-06 08:09 | 21.84719 | 38.54136 | 18924 ft | 318 kts | 192° |
| 2026-05-06 08:09 | 21.82530 | 38.53921 | 18696 ft | 314 kts | 185° |
| 2026-05-06 08:10 | 21.80352 | 38.53969 | 18336 ft | 316 kts | 171° |
| 2026-05-06 08:10 | 21.78302 | 38.54846 | 18001 ft | 321 kts | 151° |
| 2026-05-06 08:10 | 21.76641 | 38.56464 | 17618 ft | 327 kts | 131° |
| 2026-05-06 08:10 | 21.75596 | 38.58651 | 17269 ft | 333 kts | 110° |
| 2026-05-06 08:11 | 21.75333 | 38.61104 | 16928 ft | 338 kts | 92° |
| 2026-05-06 08:11 | 21.75453 | 38.63654 | 16575 ft | 337 kts | 89° |
| 2026-05-06 08:11 | 21.75629 | 38.66129 | 16214 ft | 336 kts | 89° |
| 2026-05-06 08:11 | 21.75819 | 38.68663 | 15870 ft | 334 kts | 89° |
| 2026-05-06 08:12 | 21.75997 | 38.71149 | 15512 ft | 333 kts | 89° |
| 2026-05-06 08:12 | 21.76163 | 38.73599 | 15173 ft | 332 kts | 90° |
| 2026-05-06 08:12 | 21.76322 | 38.76066 | 14829 ft | 330 kts | 90° |
| 2026-05-06 08:12 | 21.76477 | 38.78525 | 14491 ft | 329 kts | 90° |
| 2026-05-06 08:13 | 21.76627 | 38.80970 | 14192 ft | 326 kts | 90° |
| 2026-05-06 08:13 | 21.76775 | 38.83394 | 13882 ft | 324 kts | 90° |
| 2026-05-06 08:13 | 21.76920 | 38.85789 | 13718 ft | 316 kts | 90° |
| 2026-05-06 08:13 | 21.77062 | 38.88118 | 13560 ft | 308 kts | 90° |
| 2026-05-06 08:14 | 21.77199 | 38.90391 | 13409 ft | 300 kts | 90° |
| 2026-05-06 08:14 | 21.77331 | 38.92598 | 13279 ft | 292 kts | 91° |
| 2026-05-06 08:14 | 21.77460 | 38.94747 | 13158 ft | 284 kts | 91° |
| 2026-05-06 08:14 | 21.77586 | 38.96846 | 13051 ft | 278 kts | 91° |
| 2026-05-06 08:15 | 21.77626 | 38.98900 | 12768 ft | 274 kts | 101° |
| 2026-05-06 08:15 | 21.77311 | 39.00920 | 12389 ft | 274 kts | 107° |
| 2026-05-06 08:15 | 21.76890 | 39.02936 | 11949 ft | 278 kts | 107° |
| 2026-05-06 08:15 | 21.76459 | 39.04961 | 11506 ft | 277 kts | 107° |
| 2026-05-06 08:16 | 21.76040 | 39.06980 | 11069 ft | 276 kts | 107° |
| 2026-05-06 08:16 | 21.75633 | 39.08999 | 10631 ft | 276 kts | 106° |
| 2026-05-06 08:16 | 21.75235 | 39.11012 | 10164 ft | 275 kts | 105° |
| 2026-05-06 08:16 | 21.74843 | 39.13020 | 9727 ft | 275 kts | 106° |
| 2026-05-06 08:17 | 21.74452 | 39.15035 | 9274 ft | 274 kts | 105° |
| 2026-05-06 08:17 | 21.74066 | 39.17039 | 8795 ft | 272 kts | 105° |
| 2026-05-06 08:17 | 21.73684 | 39.19021 | 8373 ft | 270 kts | 105° |
| 2026-05-06 08:17 | 21.73302 | 39.20999 | 7944 ft | 270 kts | 104° |
| 2026-05-06 08:18 | 21.72920 | 39.22974 | 7496 ft | 269 kts | 104° |
| 2026-05-06 08:18 | 21.72191 | 39.24784 | 7055 ft | 263 kts | 129° |
| 2026-05-06 08:18 | 21.70837 | 39.26051 | 6716 ft | 257 kts | 151° |
| 2026-05-06 08:18 | 21.69210 | 39.26814 | 6358 ft | 254 kts | 159° |
| 2026-05-06 08:19 | 21.67552 | 39.27441 | 5985 ft | 250 kts | 160° |
| 2026-05-06 08:19 | 21.65924 | 39.28056 | 5637 ft | 246 kts | 159° |
| 2026-05-06 08:19 | 21.64323 | 39.28672 | 5295 ft | 242 kts | 159° |
| 2026-05-06 08:19 | 21.62753 | 39.29283 | 4966 ft | 238 kts | 159° |
| 2026-05-06 08:20 | 21.61203 | 39.29885 | 4634 ft | 235 kts | 159° |
| 2026-05-06 08:20 | 21.59677 | 39.30480 | 4298 ft | 232 kts | 158° |
| 2026-05-06 08:20 | 21.58186 | 39.31063 | 3990 ft | 229 kts | 158° |
| 2026-05-06 08:20 | 21.56689 | 39.31649 | 3662 ft | 229 kts | 158° |
| 2026-05-06 08:21 | 21.55182 | 39.32239 | 3369 ft | 232 kts | 158° |
| 2026-05-06 08:21 | 21.53661 | 39.32836 | 3048 ft | 230 kts | 158° |
| 2026-05-06 08:21 | 21.52159 | 39.33426 | 3029 ft | 231 kts | 158° |
| 2026-05-06 08:21 | 21.50642 | 39.34020 | 3012 ft | 234 kts | 158° |
| 2026-05-06 08:22 | 21.49106 | 39.34621 | 3009 ft | 235 kts | 158° |
| 2026-05-06 08:22 | 21.47576 | 39.35219 | 3007 ft | 233 kts | 158° |
| 2026-05-06 08:22 | 21.46054 | 39.35815 | 3017 ft | 233 kts | 158° |
| 2026-05-06 08:22 | 21.44528 | 39.36410 | 3003 ft | 233 kts | 158° |
| 2026-05-06 08:23 | 21.43009 | 39.37006 | 3019 ft | 233 kts | 158° |
| 2026-05-06 08:23 | 21.41478 | 39.37610 | 3024 ft | 235 kts | 158° |
| 2026-05-06 08:23 | 21.39949 | 39.38209 | 3008 ft | 233 kts | 159° |
| 2026-05-06 08:23 | 21.38430 | 39.38805 | 3025 ft | 232 kts | 158° |
| 2026-05-06 08:24 | 21.36903 | 39.39354 | 3017 ft | 232 kts | 169° |
| 2026-05-06 08:24 | 21.35319 | 39.39174 | 3026 ft | 232 kts | 205° |
| 2026-05-06 08:24 | 21.34089 | 39.38091 | 3033 ft | 232 kts | 237° |
| 2026-05-06 08:24 | 21.33380 | 39.36538 | 3046 ft | 233 kts | 250° |
| 2026-05-06 08:25 | 21.32815 | 39.34898 | 3031 ft | 235 kts | 253° |
| 2026-05-06 08:25 | 21.32708 | 39.33183 | 3012 ft | 230 kts | 289° |
| 2026-05-06 08:25 | 21.33598 | 39.31829 | 3017 ft | 223 kts | 327° |
| 2026-05-06 08:25 | 21.34921 | 39.30986 | 3039 ft | 222 kts | 333° |
| 2026-05-06 08:26 | 21.36302 | 39.30230 | 3010 ft | 223 kts | 337° |
| 2026-05-06 08:26 | 21.37730 | 39.29569 | 3013 ft | 223 kts | 339° |
| 2026-05-06 08:26 | 21.39186 | 39.28958 | 2987 ft | 226 kts | 340° |
| 2026-05-06 08:26 | 21.40650 | 39.28371 | 3007 ft | 225 kts | 341° |
| 2026-05-06 08:27 | 21.42104 | 39.27791 | 2941 ft | 227 kts | 341° |
| 2026-05-06 08:27 | 21.43602 | 39.27197 | 2832 ft | 225 kts | 341° |
| 2026-05-06 08:27 | 21.45054 | 39.26622 | 2709 ft | 220 kts | 341° |
| 2026-05-06 08:27 | 21.46449 | 39.26068 | 2597 ft | 213 kts | 341° |
| 2026-05-06 08:28 | 21.47832 | 39.25518 | 2504 ft | 206 kts | 341° |
| 2026-05-06 08:28 | 21.49143 | 39.24996 | 2403 ft | 201 kts | 341° |
| 2026-05-06 08:28 | 21.50445 | 39.24481 | 2307 ft | 199 kts | 340° |
| 2026-05-06 08:28 | 21.51739 | 39.23970 | 2218 ft | 198 kts | 341° |
| 2026-05-06 08:29 | 21.53008 | 39.23467 | 2127 ft | 191 kts | 340° |
| 2026-05-06 08:29 | 21.54232 | 39.22980 | 2038 ft | 184 kts | 340° |
| 2026-05-06 08:29 | 21.55394 | 39.22517 | 1953 ft | 170 kts | 341° |
| 2026-05-06 08:29 | 21.56445 | 39.22101 | 1861 ft | 153 kts | 339° |
| 2026-05-06 08:30 | 21.57383 | 39.21728 | 1774 ft | 136 kts | 339° |
| 2026-05-06 08:30 | 21.58271 | 39.21378 | 1688 ft | 138 kts | 339° |
| 2026-05-06 08:30 | 21.59147 | 39.21028 | 1560 ft | 131 kts | 339° |
| 2026-05-06 08:30 | 21.59994 | 39.20693 | 1403 ft | 129 kts | 338° |
| 2026-05-06 08:31 | 21.60828 | 39.20361 | 1244 ft | 129 kts | 338° |
| 2026-05-06 08:31 | 21.61674 | 39.20026 | 1083 ft | 130 kts | 338° |
| 2026-05-06 08:31 | 21.62513 | 39.19694 | 918 ft | 126 kts | 339° |
| 2026-05-06 08:31 | 21.63326 | 39.19370 | 772 ft | 124 kts | 339° |
| 2026-05-06 08:32 | 21.64174 | 39.19034 | 621 ft | 136 kts | 341° |
| 2026-05-06 08:32 | 21.65083 | 39.18674 | 432 ft | 143 kts | 340° |
| 2026-05-06 08:32 | 21.66002 | 39.18310 | 258 ft | 136 kts | 338° |
| 2026-05-06 08:32 | 21.66854 | 39.17971 | 72 ft | 124 kts | 338° |
| 2026-05-06 08:33 | 21.67566 | 39.17684 | 48 ft | 84 kts | 341° |
| 2026-05-06 08:33 | 21.67908 | 39.17551 | 48 ft | 27 kts | 340° |
| 2026-05-06 08:33 | 21.68020 | 39.17457 | 48 ft | 6 kts | 312° |
| 2026-05-06 08:33 | 21.68028 | 39.17447 | 50 ft | 1 kts | 311° |
| 2026-05-06 08:34 | 21.68036 | 39.17437 | 49 ft | 0 kts | 311° |
| 2026-05-06 08:35 | 21.68037 | 39.17437 | 49 ft | 1 kts | 311° |
| 2026-05-06 08:35 | 21.68045 | 39.17427 | 49 ft | 3 kts | 311° |
| 2026-05-06 08:35 | 21.68064 | 39.17403 | 48 ft | 5 kts | 311° |
| 2026-05-06 08:36 | 21.68088 | 39.17375 | 49 ft | 0 kts | 313° |
| 2026-05-06 08:36 | 21.68090 | 39.17372 | 47 ft | 1 kts | 313° |
| 2026-05-06 08:36 | 21.68093 | 39.17369 | 47 ft | 0 kts | 313° |
| 2026-05-06 08:37 | 21.68094 | 39.17368 | 48 ft | 1 kts | 312° |
| 2026-05-06 08:37 | 21.68101 | 39.17359 | 46 ft | 0 kts | 312° |
| 2026-05-06 08:37 | 21.68107 | 39.17352 | 48 ft | 2 kts | 312° |
| 2026-05-06 08:38 | 21.68123 | 39.17332 | 49 ft | 5 kts | 311° |
| 2026-05-06 08:38 | 21.68141 | 39.17311 | 48 ft | 7 kts | 311° |
| 2026-05-06 08:38 | 21.68169 | 39.17262 | 46 ft | 9 kts | 282° |
| 2026-05-06 08:38 | 21.68128 | 39.17231 | 48 ft | 10 kts | 161° |
| 2026-05-06 08:39 | 21.68063 | 39.17257 | 49 ft | 11 kts | 160° |
| 2026-05-06 08:39 | 21.67984 | 39.17288 | 49 ft | 13 kts | 159° |
| 2026-05-06 08:39 | 21.67937 | 39.17307 | 49 ft | 0 kts | 160° |